Westernport, MD (21540)

9:04 AM EST on February 09, 2016 (GMT -0500)
Stoney Run Station | | Change Station
CLOSE
Current Station
Personal Weather Station
Location: Keyser, WV
Elevation: 1275 ft
Nearby Weather Stations
Active Advisory: Winter Weather Advisory Active Notice: Public Information Statement

Elev 1275 ft 39.43 °N, 79.01 °W | Updated 9 seconds ago

Snow
Snow
32.5 °F
Feels Like 22 °F
N
17.0
Wind Variable Wind from SW
Gusts 18.0 mph

Today
High -- | Low -- °F
--% Chance of Precip.
Yesterday
High -- | Low -- °F
Precip. -- in
Pressure 29.49 in
Visibility 4.0 miles
Clouds Mostly Cloudy 1100 ft
Mostly Cloudy 1500 ft
Mostly Cloudy 2000 ft
Windchill 22 °F
Dew Point 27 °F
Humidity 81%
Rainfall 0.00 in
Snow Depth Not available.
7:15 AM 5:45 PM
New Moon, 1% visible
METAR K2G4 091350Z AUTO 24013G18KT 202V262 4SM BR BKN011 BKN015 BKN020 M06/M07 A2949 RMK AO1
Pressure 29.49 in
Visibility 4.0 miles
Clouds Mostly Cloudy 1100 ft
Mostly Cloudy 1500 ft
Mostly Cloudy 2000 ft
Windchill 22 °F
Dew Point 27 °F
Humidity 81%
Rainfall 0.00 in
Snow Depth Not available.
7:15 AM 5:45 PM
New Moon, 1% visible
METAR K2G4 091350Z AUTO 24013G18KT 202V262 4SM BR BKN011 BKN015 BKN020 M06/M07 A2949 RMK AO1

10-Day Weather Forecast

Almanac

Astronomy

Feb. 09, 2016 Rise Set
Actual Time
Civil Twilight
Nautical Twilight
Astronomical Twilight
Moon
Length of Visible Light
Length of Day
Tomorrow will be .
, % of the Moon is Illuminated

Today's Extremes

State Highs State Lows

Community

WunderPhotos

Upload Photos

1,891,597 photos uploaded!

WunderBlog® & News

Nearby

Air Quality

  Air Quality AQ Index Pollutant
Not available.

Snow Depth

Station Depth Elevation

Earthquake Activity

City Distance Mag. Time & Date
Minimum magnitude displayed is 2.5.

Coastal Water Temperatures

Place Temperature

Stations

Nearby Weather Stations

Station Location Temp. Windchill Dew Point Humidity Wind Precip. Elev Updated Type
                   

Watches & Warnings

Winter Weather Advisory
Issued: 7:55 AM EST Feb. 9, 2016 – National Weather Service

... Winter Weather Advisory remains in effect until 6 PM Wednesday...

* precipitation type... snow.

* Accumulations... snow accumulation of 4 to 8 inches.

* Timing... snow will continue through Wednesday and may become
heavy at times. Periods of snow will continue into Wednesday
night and Thursday.

* Impacts... snow covered roads and travel disruptions.

* Winds... west 10 to 20 mph with gusts up to 30 mph.

* Temperatures... in the lower 20s.

Precautionary/preparedness actions...

A Winter Weather Advisory for snow means that periods of snow
will cause primarily travel difficulties. Be prepared for snow
covered roads and limited visibilities... and use caution while
driving.